Time;durP1;ratioP1;P1;durP2;ratioP2;P2;SDS_P1;SDS_P2;PMS_P1;PMS_P2;Temp;Humidity;BMP_temperature;BMP_pressure;BME280_temperature;BME280_humidity;BME280_pressure;Samples;Min_cycle;Max_cycle;Signal;HPM_P1;HPM_P2
2022/08/05 00:01:27;;;;;;;9.95;2.92;;;;;;;;;;5062166;28;20074;-66
2022/08/05 00:03:52;;;;;;;6.93;3.23;;;;;;;;;;5068231;28;20036;-66
2022/08/05 00:06:17;;;;;;;8.50;2.70;;;;;;;;;;5050335;28;20051;-66
2022/08/05 00:08:43;;;;;;;10.00;3.08;;;;;;;;;;5069853;28;20025;-66
2022/08/05 00:11:10;;;;;;;10.70;2.75;;;;;;;;;;5070887;28;20384;-66
2022/08/05 00:13:36;;;;;;;5.63;2.40;;;;;;;;;;5066814;28;20017;-65
2022/08/05 00:16:01;;;;;;;5.68;2.78;;;;;;;;;;5071652;28;20025;-65
2022/08/05 00:18:27;;;;;;;9.73;3.58;;;;;;;;;;5071907;28;20084;-66
2022/08/05 00:20:52;;;;;;;8.50;3.00;;;;;;;;;;5072365;28;20025;-66
2022/08/05 00:23:17;;;;;;;8.13;2.87;;;;;;;;;;5072417;28;20267;-65
2022/08/05 00:25:43;;;;;;;7.35;2.20;;;;;;;;;;5072306;28;20358;-66
2022/08/05 00:28:08;;;;;;;4.60;1.98;;;;;;;;;;5069456;28;20028;-66
2022/08/05 00:30:33;;;;;;;7.00;2.63;;;;;;;;;;5072408;28;20519;-65
2022/08/05 00:32:58;;;;;;;4.38;2.75;;;;;;;;;;5071046;28;20028;-66
2022/08/05 00:35:24;;;;;;;7.03;2.10;;;;;;;;;;5072354;28;20115;-66
2022/08/05 00:37:49;;;;;;;7.68;3.25;;;;;;;;;;5071979;28;20275;-66
2022/08/05 00:40:14;;;;;;;12.47;2.67;;;;;;;;;;5072043;28;20487;-66
2022/08/05 00:42:40;;;;;;;6.65;2.60;;;;;;;;;;5071088;28;20025;-66
2022/08/05 00:45:06;;;;;;;5.22;2.60;;;;;;;;;;5070007;28;20070;-66
2022/08/05 00:47:31;;;;;;;6.18;3.08;;;;;;;;;;5066969;28;20027;-67
2022/08/05 00:49:56;;;;;;;11.00;3.05;;;;;;;;;;5071073;28;20024;-67
2022/08/05 00:52:22;;;;;;;5.05;2.60;;;;;;;;;;5071426;28;20070;-66
2022/08/05 00:54:47;;;;;;;8.60;2.47;;;;;;;;;;5070544;28;20034;-66
2022/08/05 00:57:12;;;;;;;7.20;2.38;;;;;;;;;;5071538;28;20020;-66
2022/08/05 00:59:37;;;;;;;6.67;2.50;;;;;;;;;;5071537;28;20504;-64
2022/08/05 01:02:03;;;;;;;5.43;2.50;;;;;;;;;;5071798;28;20020;-66
2022/08/05 01:04:28;;;;;;;5.25;2.78;;;;;;;;;;5051219;28;20274;-65
2022/08/05 01:06:53;;;;;;;8.73;2.77;;;;;;;;;;5071951;28;20095;-64
2022/08/05 01:09:18;;;;;;;7.05;2.80;;;;;;;;;;5067443;28;20016;-64
2022/08/05 01:11:45;;;;;;;6.37;2.37;;;;;;;;;;5071442;28;20158;-64
2022/08/05 01:14:29;;;;;;;5.78;2.50;;;;;;;;;;5071110;28;20017;-64
2022/08/05 01:17:00;;;;;;;10.10;2.65;;;;;;;;;;5069697;28;20021;-64
2022/08/05 01:19:32;;;;;;;4.15;2.75;;;;;;;;;;5071102;28;20016;-64
2022/08/05 01:22:08;;;;;;;9.27;2.35;;;;;;;;;;5061107;28;20021;-64
2022/08/05 01:24:54;;;;;;;11.90;2.70;;;;;;;;;;5069954;28;20064;-64
2022/08/05 01:27:19;;;;;;;10.45;2.72;;;;;;;;;;5065700;28;20065;-64
2022/08/05 01:29:45;;;;;;;7.78;2.60;;;;;;;;;;5068380;28;20024;-64
2022/08/05 01:32:15;;;;;;;6.43;2.78;;;;;;;;;;5068409;28;20024;-64
2022/08/05 01:34:44;;;;;;;8.85;3.15;;;;;;;;;;5074372;28;20540;-64
2022/08/05 01:37:12;;;;;;;8.90;3.33;;;;;;;;;;5069103;28;20024;-64
2022/08/05 01:39:39;;;;;;;10.60;3.25;;;;;;;;;;5062503;28;20020;-64
2022/08/05 01:42:05;;;;;;;7.22;2.63;;;;;;;;;;5068232;28;20028;-64
2022/08/05 01:44:30;;;;;;;11.02;2.95;;;;;;;;;;5068997;28;20388;-64
2022/08/05 01:46:56;;;;;;;18.90;3.53;;;;;;;;;;5068644;28;20039;-64
2022/08/05 01:49:23;;;;;;;6.50;2.72;;;;;;;;;;5069723;28;20503;-65
2022/08/05 01:51:49;;;;;;;7.25;2.88;;;;;;;;;;5071993;28;20028;-64
2022/08/05 01:54:16;;;;;;;4.40;2.70;;;;;;;;;;5065437;28;20021;-64
2022/08/05 01:56:42;;;;;;;8.55;3.30;;;;;;;;;;5070826;28;20054;-65
2022/08/05 01:59:09;;;;;;;5.68;2.92;;;;;;;;;;5068757;28;20027;-65
2022/08/05 02:01:35;;;;;;;11.90;3.28;;;;;;;;;;5070221;28;20416;-64
2022/08/05 02:04:01;;;;;;;9.73;3.30;;;;;;;;;;5070505;28;20047;-64
2022/08/05 02:06:27;;;;;;;10.75;2.97;;;;;;;;;;5068002;28;20063;-64
2022/08/05 02:08:52;;;;;;;7.82;2.78;;;;;;;;;;5071086;28;20044;-64
2022/08/05 02:11:18;;;;;;;6.18;3.00;;;;;;;;;;5060603;28;20052;-64
2022/08/05 02:13:50;;;;;;;16.80;3.33;;;;;;;;;;5068876;28;20384;-64
2022/08/05 02:16:21;;;;;;;12.10;3.72;;;;;;;;;;5066963;28;20119;-64
2022/08/05 02:18:51;;;;;;;10.18;3.38;;;;;;;;;;5068252;28;20047;-64
2022/08/05 02:21:18;;;;;;;10.35;3.60;;;;;;;;;;5069749;28;20075;-64
2022/08/05 02:23:46;;;;;;;10.15;3.58;;;;;;;;;;5071000;28;20024;-64
2022/08/05 02:26:12;;;;;;;7.43;3.63;;;;;;;;;;5069331;28;20520;-64
2022/08/05 02:28:40;;;;;;;9.00;3.72;;;;;;;;;;5064351;28;20115;-64
2022/08/05 02:31:10;;;;;;;15.52;4.15;;;;;;;;;;5065481;28;20643;-65
2022/08/05 02:33:38;;;;;;;7.28;3.25;;;;;;;;;;5069321;28;20063;-64
2022/08/05 02:36:04;;;;;;;12.68;3.95;;;;;;;;;;5065514;28;20027;-64
2022/08/05 02:38:31;;;;;;;13.02;4.53;;;;;;;;;;5070023;28;20043;-65
2022/08/05 02:40:56;;;;;;;17.70;4.43;;;;;;;;;;5069606;28;20043;-65
2022/08/05 02:43:23;;;;;;;13.05;5.28;;;;;;;;;;5066660;28;20017;-65
2022/08/05 02:45:49;;;;;;;13.68;5.68;;;;;;;;;;5061814;28;20036;-65
2022/08/05 02:48:14;;;;;;;10.90;4.82;;;;;;;;;;5062839;28;20018;-65
2022/08/05 02:50:45;;;;;;;17.60;5.55;;;;;;;;;;5069977;28;20380;-65
2022/08/05 02:53:11;;;;;;;15.80;5.90;;;;;;;;;;5068667;28;20040;-65
2022/08/05 02:55:36;;;;;;;13.25;6.00;;;;;;;;;;5069157;28;20025;-65
2022/08/05 02:58:02;;;;;;;17.05;7.05;;;;;;;;;;5069204;28;20025;-64
2022/08/05 03:00:27;;;;;;;17.05;8.02;;;;;;;;;;5069349;28;20031;-64
2022/08/05 03:02:53;;;;;;;16.42;9.13;;;;;;;;;;5061121;28;20033;-64
2022/08/05 03:05:19;;;;;;;18.17;9.27;;;;;;;;;;5058770;28;20062;-64
2022/08/05 03:07:44;;;;;;;22.13;10.07;;;;;;;;;;5065491;28;20024;-64
2022/08/05 03:10:10;;;;;;;27.40;12.35;;;;;;;;;;5069387;28;20036;-64
2022/08/05 03:12:36;;;;;;;20.50;10.52;;;;;;;;;;5069765;28;20067;-64
2022/08/05 03:15:02;;;;;;;24.77;10.93;;;;;;;;;;5070092;28;20013;-64
2022/08/05 03:17:28;;;;;;;10.80;5.57;;;;;;;;;;5069733;28;20021;-64
2022/08/05 03:19:53;;;;;;;14.40;8.50;;;;;;;;;;5060400;28;20021;-64
2022/08/05 03:22:18;;;;;;;17.92;9.55;;;;;;;;;;5068539;28;20515;-64
2022/08/05 03:24:44;;;;;;;19.88;9.90;;;;;;;;;;5063598;28;20110;-63
2022/08/05 03:27:10;;;;;;;17.35;8.85;;;;;;;;;;5069170;28;20439;-63
2022/08/05 03:29:35;;;;;;;17.73;8.57;;;;;;;;;;5068037;28;20063;-63
2022/08/05 03:32:01;;;;;;;23.07;9.17;;;;;;;;;;5069334;28;20091;-63
2022/08/05 03:34:27;;;;;;;21.88;8.50;;;;;;;;;;5062538;28;20763;-63
2022/08/05 03:36:52;;;;;;;24.10;10.10;;;;;;;;;;5067931;28;20035;-63
2022/08/05 03:39:17;;;;;;;21.20;10.18;;;;;;;;;;5068163;28;20132;-63
2022/08/05 03:41:43;;;;;;;23.85;10.85;;;;;;;;;;5069959;28;20107;-63
2022/08/05 03:44:08;;;;;;;27.90;11.87;;;;;;;;;;5069389;28;20029;-63
2022/08/05 03:46:33;;;;;;;23.23;10.83;;;;;;;;;;5067836;28;20350;-63
2022/08/05 03:48:58;;;;;;;31.50;10.87;;;;;;;;;;5052232;28;20531;-63
2022/08/05 03:51:28;;;;;;;23.13;11.30;;;;;;;;;;5071840;28;20286;-63
2022/08/05 03:53:58;;;;;;;20.98;12.38;;;;;;;;;;5072435;28;20262;-63
2022/08/05 03:56:37;;;;;;;27.67;11.52;;;;;;;;;;5072646;28;21555;-63
2022/08/05 03:59:05;;;;;;;25.70;12.52;;;;;;;;;;5072548;28;20378;-63
2022/08/05 04:01:31;;;;;;;27.65;14.20;;;;;;;;;;5072318;28;20032;-63
2022/08/05 04:03:57;;;;;;;37.00;16.58;;;;;;;;;;5070239;28;20032;-63
2022/08/05 04:06:22;;;;;;;36.08;17.00;;;;;;;;;;5071989;28;20086;-63
2022/08/05 04:08:48;;;;;;;28.70;16.10;;;;;;;;;;5066167;28;20021;-63
2022/08/05 04:11:13;;;;;;;31.00;15.82;;;;;;;;;;5070094;28;20025;-64
2022/08/05 04:13:39;;;;;;;33.47;15.55;;;;;;;;;;5069698;28;20035;-63
2022/08/05 04:16:05;;;;;;;26.23;15.45;;;;;;;;;;5063018;28;20458;-63
2022/08/05 04:18:31;;;;;;;28.52;16.33;;;;;;;;;;5071511;28;20023;-63
2022/08/05 04:20:57;;;;;;;29.30;15.98;;;;;;;;;;5071865;28;20024;-63
2022/08/05 04:23:23;;;;;;;33.97;16.42;;;;;;;;;;5069024;28;20025;-63
2022/08/05 04:25:48;;;;;;;32.28;17.30;;;;;;;;;;5072324;28;20028;-63
2022/08/05 04:28:14;;;;;;;36.30;17.88;;;;;;;;;;5059547;28;20029;-63
2022/08/05 04:30:39;;;;;;;33.70;16.58;;;;;;;;;;5062166;28;20024;-63
2022/08/05 04:33:04;;;;;;;32.33;17.47;;;;;;;;;;5072502;28;20024;-63
2022/08/05 04:35:29;;;;;;;27.97;15.80;;;;;;;;;;5137378;22;20323;-69
2022/08/05 04:37:54;;;;;;;32.03;16.87;;;;;;;;;;5061107;28;20028;-69
2022/08/05 04:40:20;;;;;;;39.07;19.97;;;;;;;;;;5073287;28;20338;-69
2022/08/05 04:42:45;;;;;;;34.53;19.53;;;;;;;;;;5071632;28;20025;-69
2022/08/05 04:45:10;;;;;;;33.07;19.53;;;;;;;;;;5061329;28;20294;-69
2022/08/05 04:47:35;;;;;;;35.87;19.43;;;;;;;;;;5066746;28;20032;-69
2022/08/05 04:50:00;;;;;;;41.43;20.37;;;;;;;;;;5070256;28;20268;-69
2022/08/05 04:52:26;;;;;;;37.90;21.77;;;;;;;;;;5067232;28;20071;-68
2022/08/05 04:54:51;;;;;;;39.65;22.50;;;;;;;;;;5070572;28;20028;-69
2022/08/05 04:57:16;;;;;;;35.97;20.90;;;;;;;;;;5059762;28;20053;-69
2022/08/05 04:59:41;;;;;;;38.57;20.13;;;;;;;;;;5067076;28;20522;-69
2022/08/05 05:02:07;;;;;;;42.53;22.03;;;;;;;;;;5071221;28;20282;-69
2022/08/05 05:04:32;;;;;;;42.47;24.00;;;;;;;;;;5064759;28;20367;-68
2022/08/05 05:06:57;;;;;;;43.77;26.43;;;;;;;;;;5063829;28;20028;-68
2022/08/05 05:09:22;;;;;;;55.77;31.03;;;;;;;;;;5071075;28;20031;-69
2022/08/05 05:11:47;;;;;;;65.00;33.80;;;;;;;;;;5071635;28;20524;-67
2022/08/05 05:14:12;;;;;;;59.30;32.37;;;;;;;;;;5070019;28;20270;-69
2022/08/05 05:16:38;;;;;;;55.53;31.97;;;;;;;;;;5068846;28;20447;-68
2022/08/05 05:19:03;;;;;;;60.40;35.27;;;;;;;;;;5063586;28;20012;-68
2022/08/05 05:21:28;;;;;;;60.57;35.27;;;;;;;;;;5067801;28;20421;-69
2022/08/05 05:23:53;;;;;;;66.37;34.90;;;;;;;;;;5065757;28;20108;-69
2022/08/05 05:26:18;;;;;;;61.17;35.10;;;;;;;;;;5067342;28;20279;-68
2022/08/05 05:28:43;;;;;;;65.10;35.25;;;;;;;;;;5069440;28;20032;-69
2022/08/05 05:31:09;;;;;;;69.68;35.72;;;;;;;;;;5065397;28;20180;-66
2022/08/05 05:33:34;;;;;;;69.17;38.10;;;;;;;;;;5070549;28;20088;-69
2022/08/05 05:35:59;;;;;;;69.43;37.73;;;;;;;;;;5064983;28;20390;-67
2022/08/05 05:38:24;;;;;;;65.20;36.80;;;;;;;;;;5061831;28;20263;-69
2022/08/05 05:40:49;;;;;;;75.70;36.50;;;;;;;;;;5058942;28;20032;-68
2022/08/05 05:43:15;;;;;;;74.50;37.53;;;;;;;;;;5067412;28;20031;-69
2022/08/05 05:45:40;;;;;;;79.17;38.80;;;;;;;;;;5066124;28;20750;-69
2022/08/05 05:48:06;;;;;;;75.03;38.80;;;;;;;;;;5060387;28;20274;-69
2022/08/05 05:50:32;;;;;;;73.75;36.83;;;;;;;;;;5068230;28;20024;-69
2022/08/05 05:52:57;;;;;;;75.53;38.03;;;;;;;;;;5067170;28;20469;-69
2022/08/05 05:55:22;;;;;;;80.85;44.38;;;;;;;;;;5066355;28;20027;-67
2022/08/05 05:57:47;;;;;;;85.63;42.67;;;;;;;;;;5067544;28;20033;-68
2022/08/05 06:00:15;;;;;;;78.20;43.25;;;;;;;;;;5069046;28;20250;-67
2022/08/05 06:02:40;;;;;;;89.53;46.03;;;;;;;;;;5064332;28;20461;-68
2022/08/05 06:05:06;;;;;;;85.30;43.42;;;;;;;;;;5063414;28;20113;-68
2022/08/05 06:07:31;;;;;;;88.05;46.10;;;;;;;;;;5067783;28;20143;-68
2022/08/05 06:09:56;;;;;;;95.50;47.57;;;;;;;;;;5058505;28;20777;-68
2022/08/05 06:12:21;;;;;;;98.40;47.70;;;;;;;;;;5067325;28;20294;-68
2022/08/05 06:14:48;;;;;;;94.53;46.28;;;;;;;;;;5062133;28;20059;-68
2022/08/05 06:17:13;;;;;;;107.00;53.73;;;;;;;;;;5069000;28;20092;-68
2022/08/05 06:19:39;;;;;;;104.10;51.80;;;;;;;;;;5063084;28;20730;-68
2022/08/05 06:22:04;;;;;;;104.93;50.70;;;;;;;;;;5064777;28;20258;-68
2022/08/05 06:24:30;;;;;;;101.93;51.05;;;;;;;;;;5061290;28;20021;-69
2022/08/05 06:26:55;;;;;;;105.97;49.42;;;;;;;;;;5062227;28;20439;-68
2022/08/05 06:29:20;;;;;;;100.77;47.93;;;;;;;;;;5058217;28;20017;-68
2022/08/05 06:31:45;;;;;;;102.97;48.72;;;;;;;;;;5067210;28;20340;-68
2022/08/05 06:34:11;;;;;;;100.03;49.30;;;;;;;;;;5061014;28;20021;-67
2022/08/05 06:36:36;;;;;;;101.53;49.35;;;;;;;;;;5066093;28;20302;-69
2022/08/05 06:39:01;;;;;;;108.32;52.47;;;;;;;;;;5066679;28;20028;-68
2022/08/05 06:41:26;;;;;;;113.00;49.45;;;;;;;;;;5062212;28;20032;-69
2022/08/05 06:43:52;;;;;;;94.45;49.25;;;;;;;;;;5068926;28;20456;-67
2022/08/05 06:46:17;;;;;;;100.40;49.30;;;;;;;;;;5069127;28;20020;-68
2022/08/05 06:48:42;;;;;;;97.67;46.87;;;;;;;;;;5068418;28;20032;-68
2022/08/05 06:51:07;;;;;;;106.93;46.73;;;;;;;;;;5059949;28;20794;-68
2022/08/05 06:53:34;;;;;;;112.27;47.30;;;;;;;;;;5061509;28;20275;-68
2022/08/05 06:55:59;;;;;;;103.88;48.10;;;;;;;;;;5070170;28;20773;-69
2022/08/05 06:58:25;;;;;;;96.40;47.25;;;;;;;;;;5068424;28;20029;-69
2022/08/05 07:00:50;;;;;;;102.55;50.05;;;;;;;;;;5055790;28;21050;-69
2022/08/05 07:03:16;;;;;;;98.97;44.03;;;;;;;;;;5048991;28;20033;-69
2022/08/05 07:05:41;;;;;;;70.55;37.00;;;;;;;;;;5054650;28;20279;-69
2022/08/05 07:08:06;;;;;;;70.97;35.70;;;;;;;;;;5065580;28;20033;-68
2022/08/05 07:10:32;;;;;;;69.22;35.35;;;;;;;;;;5063372;28;20017;-67
2022/08/05 07:18:25;;;;;;;74.47;35.05;;;;;;;;;;5065759;28;20526;-68
2022/08/05 07:20:50;;;;;;;69.87;35.53;;;;;;;;;;5067370;28;20032;-68
2022/08/05 07:23:15;;;;;;;61.67;32.35;;;;;;;;;;5070783;28;20251;-68
2022/08/05 07:25:41;;;;;;;53.03;29.87;;;;;;;;;;5069848;28;20051;-68
2022/08/05 07:28:06;;;;;;;52.27;28.80;;;;;;;;;;5064601;28;20308;-68
2022/08/05 07:30:32;;;;;;;43.67;28.33;;;;;;;;;;5069063;28;20258;-67
2022/08/05 07:32:58;;;;;;;52.75;29.15;;;;;;;;;;5069228;28;20743;-69
2022/08/05 07:35:23;;;;;;;53.55;28.73;;;;;;;;;;5067189;28;20029;-68
2022/08/05 07:37:48;;;;;;;63.95;34.00;;;;;;;;;;5068645;28;20468;-68
2022/08/05 07:40:14;;;;;;;54.10;31.83;;;;;;;;;;5069410;28;20417;-68
2022/08/05 07:42:39;;;;;;;50.47;30.23;;;;;;;;;;5066917;28;20021;-68
2022/08/05 07:45:04;;;;;;;71.05;36.97;;;;;;;;;;5068320;28;20024;-69
2022/08/05 07:47:29;;;;;;;74.38;35.67;;;;;;;;;;5066333;28;20416;-68
2022/08/05 07:49:55;;;;;;;81.67;38.53;;;;;;;;;;5069231;28;20022;-66
2022/08/05 07:52:20;;;;;;;73.07;35.80;;;;;;;;;;5064238;28;20416;-68
2022/08/05 07:54:45;;;;;;;67.13;35.60;;;;;;;;;;5055773;28;20051;-68
2022/08/05 07:57:11;;;;;;;64.28;33.88;;;;;;;;;;5060732;28;20267;-68
2022/08/05 07:59:36;;;;;;;62.50;34.70;;;;;;;;;;5064082;28;20496;-69
2022/08/05 08:02:01;;;;;;;64.37;34.00;;;;;;;;;;5060075;28;20074;-69
2022/08/05 08:04:27;;;;;;;71.57;36.13;;;;;;;;;;5063817;28;20275;-67
2022/08/05 08:06:52;;;;;;;63.35;33.85;;;;;;;;;;5063525;28;20088;-68
2022/08/05 08:09:17;;;;;;;62.45;35.80;;;;;;;;;;5067422;28;20667;-68
2022/08/05 08:11:42;;;;;;;60.10;33.43;;;;;;;;;;5051089;28;20033;-66
2022/08/05 08:14:07;;;;;;;71.83;34.93;;;;;;;;;;5065097;28;20020;-69
2022/08/05 08:16:32;;;;;;;64.63;33.93;;;;;;;;;;5063556;28;20366;-67
2022/08/05 08:18:58;;;;;;;81.70;35.23;;;;;;;;;;5064297;28;20274;-69
2022/08/05 08:21:23;;;;;;;72.53;36.00;;;;;;;;;;5064421;28;20338;-67
2022/08/05 08:23:48;;;;;;;81.45;38.80;;;;;;;;;;5068275;28;20130;-69
2022/08/05 08:26:13;;;;;;;71.95;34.33;;;;;;;;;;5060282;28;20028;-68
2022/08/05 08:28:39;;;;;;;64.40;31.47;;;;;;;;;;5062719;28;20142;-69
2022/08/05 08:31:07;;;;;;;63.77;31.50;;;;;;;;;;5058599;28;20332;-68
2022/08/05 08:33:32;;;;;;;55.50;28.23;;;;;;;;;;5067523;28;20275;-68
2022/08/05 08:35:58;;;;;;;59.45;28.65;;;;;;;;;;5045185;28;20020;-68
2022/08/05 08:38:23;;;;;;;51.50;27.33;;;;;;;;;;5062586;28;20035;-69
2022/08/05 08:40:48;;;;;;;47.40;25.23;;;;;;;;;;5064922;28;20287;-68
2022/08/05 08:43:14;;;;;;;49.00;24.27;;;;;;;;;;5062113;28;20301;-69
2022/08/05 08:45:39;;;;;;;47.00;25.50;;;;;;;;;;5061158;28;20137;-67
2022/08/05 08:48:05;;;;;;;45.78;24.90;;;;;;;;;;5065900;28;20028;-69
2022/08/05 08:50:32;;;;;;;41.80;21.65;;;;;;;;;;5057307;28;20024;-68
2022/08/05 08:53:07;;;;;;;35.47;19.63;;;;;;;;;;5062227;28;20107;-68
2022/08/05 08:55:33;;;;;;;35.45;19.27;;;;;;;;;;5063805;28;20021;-68
2022/08/05 08:58:01;;;;;;;35.50;19.58;;;;;;;;;;5064107;28;20032;-67
2022/08/05 09:00:27;;;;;;;38.67;20.35;;;;;;;;;;5062125;28;20025;-69
2022/08/05 09:02:53;;;;;;;37.88;20.70;;;;;;;;;;5059797;28;20025;-68
2022/08/05 09:05:18;;;;;;;43.20;22.55;;;;;;;;;;5068331;28;20464;-68
2022/08/05 09:07:43;;;;;;;42.03;23.27;;;;;;;;;;5069963;28;20670;-69
2022/08/05 09:10:08;;;;;;;43.67;24.13;;;;;;;;;;5060572;28;20021;-66
2022/08/05 09:12:34;;;;;;;46.38;25.55;;;;;;;;;;5057161;28;20295;-68
2022/08/05 09:15:01;;;;;;;43.88;24.95;;;;;;;;;;5069386;28;20024;-69
2022/08/05 09:17:26;;;;;;;49.08;27.08;;;;;;;;;;5064249;28;20073;-69
2022/08/05 09:19:51;;;;;;;54.00;27.65;;;;;;;;;;5060900;28;20405;-66
2022/08/05 09:22:16;;;;;;;43.47;25.47;;;;;;;;;;5066825;28;20039;-69
2022/08/05 09:24:43;;;;;;;50.80;26.37;;;;;;;;;;5059141;28;20043;-68
2022/08/05 09:27:08;;;;;;;51.63;27.80;;;;;;;;;;5066554;28;20831;-68
2022/08/05 09:29:38;;;;;;;45.72;26.40;;;;;;;;;;5065131;28;20028;-68
2022/08/05 09:32:04;;;;;;;47.78;27.25;;;;;;;;;;5061089;28;20066;-67
2022/08/05 09:35:07;;;;;;;47.50;27.20;;;;;;;;;;5063645;28;20540;-67
2022/08/05 09:37:32;;;;;;;44.22;26.40;;;;;;;;;;4980567;28;20738;-69
2022/08/05 09:39:57;;;;;;;48.73;25.63;;;;;;;;;;5038547;28;20045;-68
2022/08/05 09:42:24;;;;;;;42.47;24.57;;;;;;;;;;5058199;28;20287;-67
2022/08/05 09:44:51;;;;;;;45.97;21.30;;;;;;;;;;5067152;28;20106;-69
2022/08/05 09:47:19;;;;;;;40.80;20.63;;;;;;;;;;5062438;28;20016;-68
2022/08/05 09:49:52;;;;;;;35.10;18.00;;;;;;;;;;5067492;28;20028;-66
2022/08/05 09:52:18;;;;;;;32.83;18.30;;;;;;;;;;5069918;28;20077;-68
2022/08/05 09:54:52;;;;;;;24.80;16.67;;;;;;;;;;5066189;28;20049;-68
2022/08/05 09:57:47;;;;;;;33.45;17.88;;;;;;;;;;5046711;28;20392;-67
2022/08/05 10:00:14;;;;;;;36.55;18.08;;;;;;;;;;5036693;28;20497;-67
2022/08/05 10:02:43;;;;;;;25.65;17.20;;;;;;;;;;5062590;28;20024;-67
2022/08/05 10:05:12;;;;;;;30.85;16.52;;;;;;;;;;5063050;28;20536;-68
2022/08/05 10:07:54;;;;;;;30.98;17.83;;;;;;;;;;5061362;28;20049;-68
2022/08/05 10:10:23;;;;;;;26.05;17.45;;;;;;;;;;5068105;28;20485;-68
2022/08/05 10:12:53;;;;;;;23.55;16.42;;;;;;;;;;5063280;28;20388;-68
2022/08/05 10:15:24;;;;;;;32.22;17.05;;;;;;;;;;5069145;28;20440;-68
2022/08/05 10:18:08;;;;;;;26.45;16.83;;;;;;;;;;5064795;28;20481;-68
2022/08/05 10:20:35;;;;;;;30.38;16.73;;;;;;;;;;5064509;28;20016;-68
2022/08/05 10:23:00;;;;;;;23.10;13.98;;;;;;;;;;5063434;28;20387;-68
2022/08/05 10:25:25;;;;;;;23.95;13.27;;;;;;;;;;5055799;28;20100;-68
2022/08/05 10:27:52;;;;;;;15.48;12.48;;;;;;;;;;5057044;28;20025;-68
2022/08/05 10:30:17;;;;;;;20.13;12.73;;;;;;;;;;5060199;28;20038;-68
2022/08/05 10:32:43;;;;;;;19.13;11.60;;;;;;;;;;5066937;28;20029;-68
2022/08/05 10:35:09;;;;;;;20.02;11.48;;;;;;;;;;5073860;22;20020;-88
2022/08/05 10:37:34;;;;;;;19.35;10.63;;;;;;;;;;5122978;22;20396;-63
2022/08/05 10:40:03;;;;;;;16.55;10.77;;;;;;;;;;5100823;28;20024;-63
2022/08/05 10:42:33;;;;;;;17.20;10.82;;;;;;;;;;5107082;28;20042;-66
2022/08/05 10:44:58;;;;;;;20.48;11.63;;;;;;;;;;5105113;28;20460;-66
2022/08/05 10:47:29;;;;;;;20.17;10.25;;;;;;;;;;5085049;28;20039;-66
2022/08/05 10:50:14;;;;;;;14.32;8.60;;;;;;;;;;5083953;28;20111;-66
2022/08/05 10:52:40;;;;;;;15.93;7.72;;;;;;;;;;5081618;28;20112;-66
2022/08/05 10:55:05;;;;;;;18.25;8.52;;;;;;;;;;5085574;28;20035;-66
2022/08/05 10:57:31;;;;;;;20.65;7.40;;;;;;;;;;5088213;28;20012;-66
2022/08/05 11:00:06;;;;;;;19.88;8.52;;;;;;;;;;5084040;28;20020;-66
2022/08/05 11:02:31;;;;;;;19.45;6.13;;;;;;;;;;5088738;28;20028;-66
2022/08/05 11:04:56;;;;;;;11.07;5.25;;;;;;;;;;5081749;28;20451;-66
2022/08/05 11:07:23;;;;;;;12.63;4.88;;;;;;;;;;5086274;28;20504;-66
2022/08/05 11:09:49;;;;;;;14.27;5.57;;;;;;;;;;5088765;28;20032;-66
2022/08/05 11:12:33;;;;;;;12.45;4.85;;;;;;;;;;5089322;28;20028;-66
2022/08/05 11:15:08;;;;;;;12.07;4.95;;;;;;;;;;5086098;28;20024;-66
2022/08/05 11:17:36;;;;;;;12.05;4.72;;;;;;;;;;5088594;28;20012;-66
2022/08/05 11:20:02;;;;;;;16.42;5.90;;;;;;;;;;5081885;28;20119;-66
2022/08/05 11:22:36;;;;;;;15.05;6.03;;;;;;;;;;5088218;28;20515;-66
2022/08/05 11:25:20;;;;;;;16.33;5.65;;;;;;;;;;5079964;28;20020;-66
2022/08/05 11:27:45;;;;;;;11.32;5.45;;;;;;;;;;5083638;28;20024;-66
2022/08/05 11:30:10;;;;;;;15.40;6.35;;;;;;;;;;5087654;28;20026;-64
2022/08/05 11:32:35;;;;;;;13.73;5.73;;;;;;;;;;5085030;28;20054;-64
2022/08/05 11:35:01;;;;;;;7.70;5.47;;;;;;;;;;5084694;28;20284;-64
2022/08/05 11:37:35;;;;;;;12.83;4.83;;;;;;;;;;5089064;28;20950;-64
2022/08/05 11:40:00;;;;;;;11.30;4.65;;;;;;;;;;5088808;28;20415;-64
2022/08/05 11:42:26;;;;;;;17.40;4.97;;;;;;;;;;5085572;28;20020;-64
2022/08/05 11:44:54;;;;;;;9.63;4.28;;;;;;;;;;5081064;28;20262;-64
2022/08/05 11:47:20;;;;;;;10.23;5.38;;;;;;;;;;5080247;28;20013;-64
2022/08/05 11:49:45;;;;;;;10.95;4.78;;;;;;;;;;5088280;28;20027;-64
2022/08/05 11:52:10;;;;;;;9.23;4.53;;;;;;;;;;5084665;28;20029;-64
2022/08/05 11:54:36;;;;;;;13.52;5.90;;;;;;;;;;5084166;28;20262;-66
2022/08/05 11:57:03;;;;;;;9.68;4.68;;;;;;;;;;5085553;28;20099;-64
2022/08/05 11:59:29;;;;;;;10.73;4.50;;;;;;;;;;5082674;28;20099;-64
2022/08/05 12:01:55;;;;;;;10.93;4.00;;;;;;;;;;5089187;28;20170;-65
2022/08/05 12:04:20;;;;;;;6.65;3.67;;;;;;;;;;5078259;28;20024;-65
2022/08/05 12:06:46;;;;;;;5.70;3.80;;;;;;;;;;5088343;28;20069;-65
2022/08/05 12:09:12;;;;;;;7.68;3.95;;;;;;;;;;5084381;28;20024;-64
2022/08/05 12:11:37;;;;;;;8.48;3.45;;;;;;;;;;5089471;28;20649;-65
2022/08/05 12:14:03;;;;;;;8.47;3.63;;;;;;;;;;5092247;28;20016;-65
2022/08/05 12:16:33;;;;;;;6.25;3.25;;;;;;;;;;5092601;28;20273;-65
2022/08/05 12:18:58;;;;;;;11.03;3.87;;;;;;;;;;5092698;28;20021;-64
2022/08/05 12:21:25;;;;;;;5.93;2.72;;;;;;;;;;5087831;28;20024;-64
2022/08/05 12:23:51;;;;;;;13.07;2.90;;;;;;;;;;5088714;28;20367;-64
2022/08/05 12:26:17;;;;;;;7.88;3.00;;;;;;;;;;5086063;28;20009;-64
2022/08/05 12:28:42;;;;;;;8.60;2.58;;;;;;;;;;5092447;28;20608;-65
2022/08/05 12:31:07;;;;;;;6.60;2.77;;;;;;;;;;5077866;28;20421;-65
2022/08/05 12:33:32;;;;;;;7.72;3.33;;;;;;;;;;5080397;28;20400;-65
2022/08/05 12:35:59;;;;;;;8.02;3.42;;;;;;;;;;5085193;28;20027;-65
2022/08/05 12:38:24;;;;;;;9.25;3.22;;;;;;;;;;5090191;28;20062;-65
2022/08/05 12:40:50;;;;;;;11.18;3.40;;;;;;;;;;5089071;28;20578;-65
2022/08/05 12:43:15;;;;;;;7.65;3.47;;;;;;;;;;5086648;28;20038;-65
2022/08/05 12:45:50;;;;;;;8.33;3.10;;;;;;;;;;5084904;28;20031;-64
2022/08/05 12:48:15;;;;;;;9.88;3.83;;;;;;;;;;5090809;28;20758;-65
2022/08/05 12:50:40;;;;;;;7.95;3.28;;;;;;;;;;5091964;28;20028;-65
2022/08/05 12:53:05;;;;;;;9.67;3.57;;;;;;;;;;5084791;28;20540;-65
2022/08/05 12:55:31;;;;;;;9.50;4.00;;;;;;;;;;5086923;28;20254;-64
2022/08/05 12:57:57;;;;;;;9.95;3.75;;;;;;;;;;5087906;28;20278;-65
2022/08/05 13:00:23;;;;;;;18.65;4.57;;;;;;;;;;5086534;28;20020;-65
2022/08/05 13:02:49;;;;;;;7.43;3.40;;;;;;;;;;5089650;28;20051;-65
2022/08/05 13:05:14;;;;;;;9.65;3.67;;;;;;;;;;5083868;28;20440;-65
2022/08/05 13:07:39;;;;;;;8.50;3.15;;;;;;;;;;5090352;28;20046;-65
2022/08/05 13:10:09;;;;;;;6.65;3.35;;;;;;;;;;5084662;28;20028;-65
2022/08/05 13:12:38;;;;;;;7.28;3.38;;;;;;;;;;5086024;28;20057;-64
2022/08/05 13:15:03;;;;;;;11.80;3.08;;;;;;;;;;5088006;28;20082;-64
2022/08/05 13:17:29;;;;;;;12.43;3.75;;;;;;;;;;5086599;28;20051;-65
2022/08/05 13:20:14;;;;;;;8.82;3.60;;;;;;;;;;5089271;28;20020;-65
2022/08/05 13:22:40;;;;;;;10.25;4.18;;;;;;;;;;5083422;28;20031;-64
2022/08/05 13:25:07;;;;;;;12.05;3.53;;;;;;;;;;5081390;28;20024;-64
2022/08/05 13:27:37;;;;;;;9.93;3.03;;;;;;;;;;5084632;28;20036;-65
2022/08/05 13:30:03;;;;;;;10.95;3.17;;;;;;;;;;5091295;28;20027;-65
2022/08/05 13:32:29;;;;;;;8.30;2.80;;;;;;;;;;5083766;28;20159;-65
2022/08/05 13:34:54;;;;;;;9.82;3.53;;;;;;;;;;5086074;28;20027;-65
2022/08/05 13:37:20;;;;;;;13.57;3.00;;;;;;;;;;5081443;28;20024;-65
2022/08/05 13:39:46;;;;;;;8.82;3.38;;;;;;;;;;5085727;28;20281;-65
2022/08/05 13:42:11;;;;;;;7.18;2.70;;;;;;;;;;5084551;28;20024;-65
2022/08/05 13:44:36;;;;;;;6.27;2.97;;;;;;;;;;5085534;28;20030;-65
2022/08/05 13:47:01;;;;;;;8.83;3.23;;;;;;;;;;5088662;28;20766;-65
2022/08/05 13:49:27;;;;;;;5.05;2.60;;;;;;;;;;5089212;28;20012;-65
2022/08/05 13:51:52;;;;;;;7.60;3.10;;;;;;;;;;5084574;28;20016;-64
2022/08/05 13:54:19;;;;;;;7.37;2.73;;;;;;;;;;5085707;28;20013;-64
2022/08/05 13:56:44;;;;;;;10.63;3.17;;;;;;;;;;5088743;28;20814;-65
2022/08/05 13:59:09;;;;;;;6.13;2.95;;;;;;;;;;5085013;28;20106;-65
2022/08/05 14:01:35;;;;;;;8.77;2.67;;;;;;;;;;5079155;28;20088;-65
2022/08/05 14:06:44;;;;;;;7.28;2.83;;;;;;;;;;5085084;28;20049;-65
2022/08/05 14:09:09;;;;;;;5.77;2.43;;;;;;;;;;5078884;28;20032;-65
2022/08/05 14:11:37;;;;;;;5.80;2.90;;;;;;;;;;5084136;28;20035;-65
2022/08/05 14:14:03;;;;;;;8.65;3.17;;;;;;;;;;5076896;28;20011;-65
2022/08/05 14:16:28;;;;;;;5.65;2.90;;;;;;;;;;5081645;28;20071;-65
2022/08/05 14:18:53;;;;;;;7.63;3.33;;;;;;;;;;5085994;28;20136;-65
2022/08/05 14:21:18;;;;;;;8.20;3.77;;;;;;;;;;5085037;28;20464;-64
2022/08/05 14:23:44;;;;;;;13.32;4.57;;;;;;;;;;5088128;28;20310;-65
2022/08/05 14:26:09;;;;;;;9.70;3.80;;;;;;;;;;5085886;28;20046;-65
2022/08/05 14:28:34;;;;;;;11.67;4.20;;;;;;;;;;5084256;28;20031;-65
2022/08/05 14:30:59;;;;;;;10.43;4.00;;;;;;;;;;5082985;28;20041;-65